Cisne, IL (62823)

7:11 PM CST on December 24, 2014 (GMT -0600)
Uptown | Change Station
CLOSE
Current Station
Personal Weather Station
Location: Fairfield, IL
Elevation: 446 ft
Nearby Weather Stations

Elev 446 ft 38.38 °N, 88.36 °W | Updated 2 minutes ago

Overcast
Overcast
37.9 °F
Feels Like 35 °F
N
3.7
Wind Variable Wind from South

Today
High -- | Low -- °F
--% Chance of Precip.
Yesterday
High -- | Low -- °F
Precip. -- in
7:08 AM 4:37 PM
Waxing Crescent, 12% visible
Pressure 29.76 in
Visibility 10.0 miles
Clouds Mostly Cloudy 1400 ft
Overcast 2000 ft
Windchill 35 °F
Dew Point 36 °F
Humidity 92%
Rainfall 0.36 in
Snow Depth Not available.
UV 0 out of 12
Pollen .30 out of 12
Air Quality Not available.
Flu Activity Not available.
METAR KFWC 250055Z AUTO 24006KT 10SM BKN014 OVC020 04/02 A2976 RMK AO1 T00360021

More Conditions Fewer Conditions

Pressure 29.76 in
Visibility 10.0 miles
Clouds Mostly Cloudy 1400 ft
Overcast 2000 ft
Windchill 35 °F
Dew Point 36 °F
Humidity 92%
Rainfall 0.36 in
Snow Depth Not available.
UV 0 out of 12
Pollen .30 out of 12
Air Quality Not available.
Flu Activity Not available.
METAR KFWC 250055Z AUTO 24006KT 10SM BKN014 OVC020 04/02 A2976 RMK AO1 T00360021

More Conditions Fewer Conditions

10-Day Weather Forecast

Almanac

Astronomy

Dec. 24, 2014 Rise Set
Actual Time
Civil Twilight
Nautical Twilight
Astronomical Twilight
Moon
Length of Visible Light
Length of Day
Tomorrow will be .
, % of the Moon is Illuminated

Today's Extremes

State Highs State Lows

Community

WunderPhotos

Upload Photos

1,780,203 photos uploaded!

WunderBlogs® & News

Nearby

Air Quality

  Air Quality AQ Index Pollutant
Not available.

Snow Depth

Station Depth Elevation

Earthquake Activity

City Distance Mag. Time & Date
Minimum magnitude displayed is 2.5.

Coastal Water Temperatures

Place Temperature

Nearby Weather Stations